Time;durP1;ratioP1;P1;durP2;ratioP2;P2;SDS_P1;SDS_P2;PMS_P1;PMS_P2;Temp;Humidity;BMP_temperature;BMP_pressure;BME280_temperature;BME280_humidity;BME280_pressure;Samples;Min_cycle;Max_cycle;Signal;HPM_P1;HPM_P2
2023/02/19 00:01:30;;;;;;;9.05;3.55;;;;;;;;;;5012346;28;20034;-79
2023/02/19 00:03:57;;;;;;;9.18;3.05;;;;;;;;;;5033316;28;20026;-79
2023/02/19 00:06:24;;;;;;;7.53;2.90;;;;;;;;;;5027467;28;20053;-81
2023/02/19 00:08:50;;;;;;;5.60;3.33;;;;;;;;;;5029205;28;20018;-77
2023/02/19 00:11:21;;;;;;;7.80;3.35;;;;;;;;;;5027907;28;20040;-79
2023/02/19 00:13:48;;;;;;;6.15;2.92;;;;;;;;;;5027854;28;20051;-79
2023/02/19 00:16:16;;;;;;;6.07;3.05;;;;;;;;;;5030318;28;20098;-79
2023/02/19 00:18:42;;;;;;;10.60;4.22;;;;;;;;;;5023179;28;20026;-79
2023/02/19 00:21:08;;;;;;;11.02;2.70;;;;;;;;;;5032276;28;20042;-79
2023/02/19 00:23:35;;;;;;;5.03;2.03;;;;;;;;;;5028962;28;20030;-79
2023/02/19 00:26:02;;;;;;;2.70;2.22;;;;;;;;;;5024395;28;20107;-77
2023/02/19 00:28:28;;;;;;;3.83;2.10;;;;;;;;;;5029708;28;20048;-78
2023/02/19 00:30:54;;;;;;;4.97;2.47;;;;;;;;;;5015854;28;20489;-79
2023/02/19 00:33:20;;;;;;;7.20;2.53;;;;;;;;;;5032199;28;20125;-77
2023/02/19 00:35:46;;;;;;;9.05;2.97;;;;;;;;;;5025216;28;20018;-80
2023/02/19 00:38:12;;;;;;;4.95;2.50;;;;;;;;;;5018255;28;20037;-80
2023/02/19 00:40:39;;;;;;;7.03;2.58;;;;;;;;;;5036775;28;20452;-79
2023/02/19 00:43:05;;;;;;;5.65;2.78;;;;;;;;;;5022010;28;20023;-80
2023/02/19 00:45:33;;;;;;;5.57;2.60;;;;;;;;;;5016098;28;20029;-80
2023/02/19 00:50:35;;;;;;;6.63;2.40;;;;;;;;;;5286022;22;20080;-76
2023/02/19 00:53:01;;;;;;;9.18;2.95;;;;;;;;;;5002935;28;20086;-75
2023/02/19 00:55:27;;;;;;;7.88;3.17;;;;;;;;;;5030961;28;20026;-76
2023/02/19 00:57:53;;;;;;;9.65;3.47;;;;;;;;;;5035476;28;20034;-77
2023/02/19 01:00:19;;;;;;;5.43;2.88;;;;;;;;;;5039730;28;20469;-79
2023/02/19 01:02:45;;;;;;;7.45;2.83;;;;;;;;;;5029495;28;20037;-76
2023/02/19 01:05:12;;;;;;;16.38;4.97;;;;;;;;;;5005402;28;20046;-76
2023/02/19 01:07:38;;;;;;;9.82;3.17;;;;;;;;;;5031769;28;20014;-76
2023/02/19 01:10:05;;;;;;;7.38;2.80;;;;;;;;;;5029387;28;20033;-77
2023/02/19 01:12:31;;;;;;;7.30;3.22;;;;;;;;;;5024162;28;20030;-79
2023/02/19 01:14:59;;;;;;;6.43;2.97;;;;;;;;;;5030875;28;20049;-77
2023/02/19 01:17:25;;;;;;;8.18;2.90;;;;;;;;;;5026016;28;20391;-76
2023/02/19 01:19:51;;;;;;;13.43;4.00;;;;;;;;;;5033736;28;20057;-78
2023/02/19 01:22:18;;;;;;;6.93;3.08;;;;;;;;;;5032220;28;20099;-77
2023/02/19 01:24:44;;;;;;;5.90;2.50;;;;;;;;;;5022914;28;20049;-77
2023/02/19 01:27:10;;;;;;;5.07;2.35;;;;;;;;;;5025184;28;20022;-77
2023/02/19 01:29:36;;;;;;;8.88;2.53;;;;;;;;;;5031009;28;20151;-79
2023/02/19 01:32:02;;;;;;;5.63;2.70;;;;;;;;;;5031485;28;20469;-76
2023/02/19 01:34:32;;;;;;;9.95;2.30;;;;;;;;;;5028675;28;20049;-77
2023/02/19 01:36:58;;;;;;;6.97;2.28;;;;;;;;;;5028547;28;20511;-77
2023/02/19 01:39:24;;;;;;;6.75;2.30;;;;;;;;;;5029243;28;20037;-77
2023/02/19 01:41:50;;;;;;;6.65;2.80;;;;;;;;;;5031997;28;20477;-76
2023/02/19 01:44:17;;;;;;;6.70;2.38;;;;;;;;;;5028647;28;20429;-75
2023/02/19 01:46:45;;;;;;;8.43;2.47;;;;;;;;;;5028275;28;20028;-76
2023/02/19 01:49:15;;;;;;;8.25;3.75;;;;;;;;;;5019572;28;20037;-77
2023/02/19 01:51:44;;;;;;;5.50;2.38;;;;;;;;;;5028986;28;20033;-78
2023/02/19 01:54:12;;;;;;;9.60;3.13;;;;;;;;;;5029760;28;20026;-78
2023/02/19 01:56:41;;;;;;;8.25;4.82;;;;;;;;;;5034580;28;20025;-79
2023/02/19 01:59:07;;;;;;;8.15;2.55;;;;;;;;;;5017702;28;20026;-76
2023/02/19 02:01:34;;;;;;;4.85;2.92;;;;;;;;;;5009904;28;20033;-77
2023/02/19 02:04:00;;;;;;;5.72;2.63;;;;;;;;;;5021996;28;20497;-77
2023/02/19 02:06:42;;;;;;;4.65;2.42;;;;;;;;;;5014858;28;20105;-77
2023/02/19 02:11:53;;;;;;;7.72;2.50;;;;;;;;;;5033326;28;20036;-77
2023/02/19 02:14:22;;;;;;;8.23;2.50;;;;;;;;;;5023314;28;20030;-76
2023/02/19 02:16:48;;;;;;;5.78;2.25;;;;;;;;;;5028864;28;20033;-76
2023/02/19 02:19:26;;;;;;;9.15;2.53;;;;;;;;;;5023823;28;20141;-77
2023/02/19 02:22:02;;;;;;;9.15;2.78;;;;;;;;;;5021382;28;20072;-76
2023/02/19 02:24:28;;;;;;;5.90;2.45;;;;;;;;;;5026675;28;20093;-78
2023/02/19 02:27:00;;;;;;;5.95;2.08;;;;;;;;;;5028216;28;20020;-77
2023/02/19 02:29:45;;;;;;;5.65;2.35;;;;;;;;;;5023326;28;20022;-79
2023/02/19 02:32:13;;;;;;;8.52;2.35;;;;;;;;;;5002708;28;20053;-76
2023/02/19 02:34:49;;;;;;;5.78;2.30;;;;;;;;;;5028260;28;20014;-76
2023/02/19 02:37:16;;;;;;;5.15;2.22;;;;;;;;;;5027109;28;20030;-76
2023/02/19 02:39:42;;;;;;;7.30;2.20;;;;;;;;;;5010364;28;20049;-79
2023/02/19 02:42:26;;;;;;;7.82;2.60;;;;;;;;;;5020065;28;20110;-79
2023/02/19 02:47:41;;;;;;;6.43;2.60;;;;;;;;;;5025831;28;20041;-76
2023/02/19 02:50:29;;;;;;;9.15;2.92;;;;;;;;;;5017118;28;20038;-79
2023/02/19 02:55:44;;;;;;;11.10;2.45;;;;;;;;;;5032154;28;20056;-78
2023/02/19 02:58:11;;;;;;;8.52;2.10;;;;;;;;;;5005336;28;20499;-78
2023/02/19 03:03:25;;;;;;;4.13;2.20;;;;;;;;;;5017405;28;20064;-77
2023/02/19 03:05:54;;;;;;;11.32;2.95;;;;;;;;;;5023330;28;20022;-77
2023/02/19 03:08:31;;;;;;;8.95;3.10;;;;;;;;;;5010338;28;20029;-79
2023/02/19 03:19:17;;;;;;;7.40;2.42;;;;;;;;;;5038532;28;20030;-76
2023/02/19 03:21:56;;;;;;;8.27;2.40;;;;;;;;;;5345390;23;20054;-78
2023/02/19 03:27:12;;;;;;;3.58;2.05;;;;;;;;;;5028375;28;20033;-78
2023/02/19 03:29:39;;;;;;;11.32;2.97;;;;;;;;;;5009795;28;20030;-78
2023/02/19 03:32:35;;;;;;;6.70;2.10;;;;;;;;;;5010115;28;20033;-77
2023/02/19 03:35:31;;;;;;;7.80;2.60;;;;;;;;;;4996903;28;20058;-77
2023/02/19 03:38:15;;;;;;;9.90;3.65;;;;;;;;;;4987164;28;20030;-79
2023/02/19 03:41:04;;;;;;;11.50;3.90;;;;;;;;;;5015782;28;20029;-78
2023/02/19 03:43:52;;;;;;;10.88;2.75;;;;;;;;;;4981661;28;20393;-78
2023/02/19 03:46:47;;;;;;;7.35;3.78;;;;;;;;;;4981579;28;20385;-77
2023/02/19 03:49:39;;;;;;;11.57;3.28;;;;;;;;;;4996776;28;20042;-77
2023/02/19 03:52:20;;;;;;;9.38;3.25;;;;;;;;;;5004296;28;20374;-77
2023/02/19 03:54:52;;;;;;;;;;;;;;;;;;4981205;28;20494;-77
2023/02/19 03:57:39;;;;;;;9.38;2.67;;;;;;;;;;5002167;28;19913;-77
2023/02/19 04:00:32;;;;;;;9.43;2.53;;;;;;;;;;4983310;28;20393;-78
2023/02/19 04:03:23;;;;;;;11.82;3.45;;;;;;;;;;4963095;28;20553;-77
2023/02/19 04:05:57;;;;;;;11.13;2.78;;;;;;;;;;4986286;28;20030;-82
2023/02/19 04:08:32;;;;;;;11.55;3.80;;;;;;;;;;4968421;28;20042;-76
2023/02/19 04:11:04;;;;;;;8.65;2.92;;;;;;;;;;4984590;28;20019;-78
2023/02/19 04:13:53;;;;;;;9.10;4.57;;;;;;;;;;4978506;28;20042;-77
2023/02/19 04:16:44;;;;;;;8.85;2.55;;;;;;;;;;5009609;28;20026;-76
2023/02/19 04:19:39;;;;;;;5.03;2.30;;;;;;;;;;4997807;28;20031;-78
2023/02/19 04:22:17;;;;;;;9.35;2.50;;;;;;;;;;4994710;28;20055;-78
2023/02/19 04:25:11;;;;;;;6.22;2.75;;;;;;;;;;4979515;28;20636;-77
2023/02/19 04:28:06;;;;;;;8.40;2.30;;;;;;;;;;5004613;28;20561;-78
2023/02/19 04:30:42;;;;;;;8.77;2.50;;;;;;;;;;5016684;28;20034;-77
2023/02/19 04:33:13;;;;;;;4.88;2.38;;;;;;;;;;4992749;28;20038;-76
2023/02/19 04:35:54;;;;;;;9.65;2.40;;;;;;;;;;4961294;28;20069;-78
2023/02/19 04:38:57;;;;;;;6.47;2.00;;;;;;;;;;5013699;28;20039;-78
2023/02/19 04:41:41;;;;;;;4.75;2.67;;;;;;;;;;4967905;28;20069;-76
2023/02/19 04:44:11;;;;;;;5.95;3.08;;;;;;;;;;5001821;28;20106;-79
2023/02/19 04:46:41;;;;;;;7.32;2.40;;;;;;;;;;4987147;28;20106;-78
2023/02/19 04:49:31;;;;;;;6.05;2.78;;;;;;;;;;5003042;28;20042;-78
2023/02/19 04:51:58;;;;;;;10.15;3.33;;;;;;;;;;4984289;28;20031;-78
2023/02/19 04:54:27;;;;;;;8.35;2.80;;;;;;;;;;5018485;28;20018;-80
2023/02/19 04:56:59;;;;;;;8.07;3.05;;;;;;;;;;4989778;28;20030;-81
2023/02/19 04:59:29;;;;;;;16.60;4.00;;;;;;;;;;5000468;28;20026;-77
2023/02/19 05:01:59;;;;;;;6.68;2.70;;;;;;;;;;4991103;28;20018;-82
2023/02/19 05:04:39;;;;;;;5.57;2.40;;;;;;;;;;5018129;28;20042;-77
2023/02/19 05:07:06;;;;;;;4.65;2.10;;;;;;;;;;4998791;28;20037;-77
2023/02/19 05:09:52;;;;;;;14.10;4.07;;;;;;;;;;5012306;28;20042;-77
2023/02/19 05:12:25;;;;;;;3.53;1.98;;;;;;;;;;4963198;28;20039;-77
2023/02/19 05:15:11;;;;;;;7.03;2.67;;;;;;;;;;4997128;28;20054;-77
2023/02/19 05:17:46;;;;;;;6.43;2.58;;;;;;;;;;5004126;28;20038;-78
2023/02/19 05:20:16;;;;;;;5.25;2.10;;;;;;;;;;4991440;28;20431;-78
2023/02/19 05:22:48;;;;;;;11.15;2.40;;;;;;;;;;4971614;28;20054;-79
2023/02/19 05:25:18;;;;;;;6.70;2.40;;;;;;;;;;4988396;28;20039;-78
2023/02/19 05:28:18;;;;;;;3.78;2.50;;;;;;;;;;4986706;28;20027;-78
2023/02/19 05:30:52;;;;;;;11.88;2.17;;;;;;;;;;4967938;29;20031;-77
2023/02/19 05:33:27;;;;;;;10.07;2.20;;;;;;;;;;4980336;28;20405;-77
2023/02/19 05:35:59;;;;;;;6.75;2.10;;;;;;;;;;4992903;28;20066;-80
2023/02/19 05:38:51;;;;;;;5.85;1.98;;;;;;;;;;5001401;28;20065;-77
2023/02/19 05:41:29;;;;;;;5.20;2.35;;;;;;;;;;4993481;28;20019;-78
2023/02/19 05:43:58;;;;;;;3.45;2.10;;;;;;;;;;4984783;28;20034;-81
2023/02/19 05:46:30;;;;;;;6.20;2.15;;;;;;;;;;4973975;28;20042;-77
2023/02/19 05:49:02;;;;;;;9.52;2.20;;;;;;;;;;4970025;28;20102;-80
2023/02/19 05:51:28;;;;;;;4.25;2.03;;;;;;;;;;4986028;28;20035;-77
2023/02/19 05:53:56;;;;;;;4.97;2.65;;;;;;;;;;4982578;28;20362;-76
2023/02/19 05:56:45;;;;;;;4.25;2.17;;;;;;;;;;4987978;28;20445;-77
2023/02/19 05:59:22;;;;;;;5.13;2.28;;;;;;;;;;4999735;28;20125;-78
2023/02/19 06:02:04;;;;;;;;;;;;;;;;;;;;;
2023/02/19 06:04:39;;;;;;;6.25;2.47;;;;;;;;;;5000828;28;20050;-77
2023/02/19 06:07:08;;;;;;;6.85;2.25;;;;;;;;;;4982927;28;20462;-76
2023/02/19 06:09:35;;;;;;;6.43;2.33;;;;;;;;;;4980907;28;20027;-79
2023/02/19 06:12:22;;;;;;;3.17;2.00;;;;;;;;;;4973285;28;20062;-79
2023/02/19 06:14:59;;;;;;;3.80;1.80;;;;;;;;;;4996751;28;20035;-78
2023/02/19 06:18:03;;;;;;;;;;;;;;;;;;;;;
2023/02/19 06:20:36;;;;;;;3.15;1.70;;;;;;;;;;4981959;28;20118;-80
2023/02/19 06:23:16;;;;;;;4.75;1.75;;;;;;;;;;4978226;28;20046;-78
2023/02/19 06:26:06;;;;;;;5.53;2.10;;;;;;;;;;4977797;28;20022;-75
2023/02/19 06:29:04;;;;;;;2.22;1.80;;;;;;;;;;4989050;28;20046;-76
2023/02/19 06:31:50;;;;;;;2.80;1.52;;;;;;;;;;4992525;28;20516;-79
2023/02/19 06:34:23;;;;;;;2.38;2.03;;;;;;;;;;4967604;28;20046;-78
2023/02/19 06:37:06;;;;;;;2.30;1.40;;;;;;;;;;4991089;28;20114;-77
2023/02/19 06:39:55;;;;;;;4.13;1.90;;;;;;;;;;5022328;28;20026;-79
2023/02/19 06:42:37;;;;;;;1.80;1.50;;;;;;;;;;5000754;28;20031;-78
2023/02/19 06:45:45;;;;;;;2.33;1.60;;;;;;;;;;4973113;28;20038;-76
2023/02/19 06:48:19;;;;;;;2.10;2.00;;;;;;;;;;4987014;28;20019;-77
2023/02/19 06:50:48;;;;;;;6.55;1.67;;;;;;;;;;5005175;28;20034;-77
2023/02/19 06:53:53;;;;;;;4.57;1.85;;;;;;;;;;4996108;28;20046;-79
2023/02/19 06:57:02;;;;;;;3.15;1.50;;;;;;;;;;4986388;28;20038;-76
2023/02/19 06:59:38;;;;;;;1.92;1.45;;;;;;;;;;5005869;28;20041;-76
2023/02/19 07:02:28;;;;;;;3.67;1.70;;;;;;;;;;5007656;28;20030;-76
2023/02/19 07:05:32;;;;;;;4.53;1.63;;;;;;;;;;4986583;28;20046;-77
2023/02/19 07:08:23;;;;;;;3.95;1.45;;;;;;;;;;5012852;28;20034;-76
2023/02/19 07:11:03;;;;;;;1.73;1.55;;;;;;;;;;5006065;28;20435;-78
2023/02/19 07:13:36;;;;;;;2.65;1.20;;;;;;;;;;5002037;28;20113;-78
2023/02/19 07:16:28;;;;;;;2.95;1.58;;;;;;;;;;4988451;28;20065;-80
2023/02/19 07:19:37;;;;;;;4.90;1.95;;;;;;;;;;5004831;28;20026;-79
2023/02/19 07:22:24;;;;;;;1.58;1.25;;;;;;;;;;5002845;28;20054;-76
2023/02/19 07:25:17;;;;;;;1.50;1.40;;;;;;;;;;4981027;28;20098;-77
2023/02/19 07:27:48;;;;;;;1.92;1.40;;;;;;;;;;4986698;28;20266;-77
2023/02/19 07:31:04;;;;;;;2.03;1.75;;;;;;;;;;4993590;28;20027;-77
2023/02/19 07:34:10;;;;;;;2.47;1.57;;;;;;;;;;4973483;28;20031;-76
2023/02/19 07:36:53;;;;;;;5.40;1.65;;;;;;;;;;4946277;29;20028;-76
2023/02/19 07:39:41;;;;;;;1.40;1.30;;;;;;;;;;4923517;29;20108;-75
2023/02/19 07:42:21;;;;;;;1.40;1.30;;;;;;;;;;4953100;28;20046;-77
2023/02/19 07:45:21;;;;;;;2.33;1.52;;;;;;;;;;4944368;29;20071;-76
2023/02/19 07:58:30;;;;;;;1.52;1.42;;;;;;;;;;5219822;23;19925;-77
2023/02/19 08:00:59;;;;;;;3.10;1.60;;;;;;;;;;5037257;28;20022;-76
2023/02/19 08:03:25;;;;;;;1.65;1.55;;;;;;;;;;5026080;28;20469;-77
2023/02/19 08:05:53;;;;;;;1.70;1.40;;;;;;;;;;5023841;28;20029;-77
2023/02/19 08:08:22;;;;;;;3.78;1.60;;;;;;;;;;5006971;28;20018;-78
2023/02/19 08:13:33;;;;;;;1.50;1.40;;;;;;;;;;5020722;28;20061;-77
2023/02/19 08:16:02;;;;;;;2.38;1.60;;;;;;;;;;5004087;28;20034;-77
2023/02/19 08:18:31;;;;;;;1.30;1.13;;;;;;;;;;5009934;28;20030;-77
2023/02/19 08:21:06;;;;;;;1.48;1.38;;;;;;;;;;5022572;28;20029;-79
2023/02/19 08:23:34;;;;;;;2.33;1.60;;;;;;;;;;5027403;28;20050;-78
2023/02/19 08:26:06;;;;;;;1.67;1.58;;;;;;;;;;5020235;28;20030;-77
2023/02/19 08:31:09;;;;;;;1.70;1.55;;;;;;;;;;5641607;22;20070;-77
2023/02/19 08:33:37;;;;;;;1.92;1.50;;;;;;;;;;4988365;28;20026;-78
2023/02/19 08:36:04;;;;;;;2.22;1.63;;;;;;;;;;4978183;28;20026;-78
2023/02/19 08:38:31;;;;;;;2.00;1.40;;;;;;;;;;4989597;28;20054;-76
2023/02/19 08:40:59;;;;;;;3.15;2.58;;;;;;;;;;5002711;28;20030;-77
2023/02/19 08:51:10;;;;;;;3.30;1.60;;;;;;;;;;5661484;23;20031;-79
2023/02/19 08:53:37;;;;;;;1.60;1.50;;;;;;;;;;4971673;28;20034;-78
2023/02/19 08:56:14;;;;;;;3.42;1.70;;;;;;;;;;4982799;28;20090;-78
2023/02/19 08:59:00;;;;;;;1.63;1.52;;;;;;;;;;4980412;28;20034;-80
2023/02/19 09:05:00;;;;;;;2.58;1.60;;;;;;;;;;4986255;28;20055;-77
2023/02/19 09:07:54;;;;;;;1.92;1.63;;;;;;;;;;4981074;28;20110;-79
2023/02/19 09:10:35;;;;;;;2.63;1.65;;;;;;;;;;4945250;28;20042;-78
2023/02/19 09:13:30;;;;;;;1.70;1.50;;;;;;;;;;4970894;28;20031;-80
2023/02/19 09:16:16;;;;;;;3.22;1.92;;;;;;;;;;4976671;28;20433;-79
2023/02/19 09:19:04;;;;;;;3.15;1.60;;;;;;;;;;4975765;28;20026;-79
2023/02/19 09:28:15;;;;;;;1.65;1.55;;;;;;;;;;4990836;28;20126;-78
2023/02/19 09:31:21;;;;;;;1.52;1.42;;;;;;;;;;4970283;28;20023;-78
2023/02/19 09:35:01;;;;;;;1.33;1.30;;;;;;;;;;4990244;28;20031;-78
2023/02/19 09:37:59;;;;;;;1.65;1.50;;;;;;;;;;4980232;28;20035;-79
2023/02/19 09:40:46;;;;;;;1.98;1.88;;;;;;;;;;4978571;28;20039;-78
2023/02/19 09:43:34;;;;;;;1.77;1.58;;;;;;;;;;4968869;28;20054;-79
2023/02/19 09:46:11;;;;;;;1.70;1.60;;;;;;;;;;4962727;28;20054;-78
2023/02/19 09:48:37;;;;;;;3.15;1.80;;;;;;;;;;4964368;28;20019;-77
2023/02/19 09:51:08;;;;;;;1.40;1.30;;;;;;;;;;4944197;28;20081;-75
2023/02/19 09:53:54;;;;;;;3.42;1.77;;;;;;;;;;4982134;28;20030;-78
2023/02/19 09:56:21;;;;;;;2.33;1.67;;;;;;;;;;4980748;28;20027;-75
2023/02/19 09:58:50;;;;;;;2.75;1.63;;;;;;;;;;4980654;28;20105;-78
2023/02/19 10:01:17;;;;;;;2.13;1.50;;;;;;;;;;4947438;28;20461;-75
2023/02/19 10:03:47;;;;;;;1.65;1.55;;;;;;;;;;4962984;28;20034;-76
2023/02/19 10:06:22;;;;;;;6.28;1.70;;;;;;;;;;4943076;28;20077;-77
2023/02/19 10:08:50;;;;;;;3.22;1.55;;;;;;;;;;4962491;28;20465;-77
2023/02/19 10:11:33;;;;;;;2.58;1.80;;;;;;;;;;4961280;28;20126;-78
2023/02/19 10:14:10;;;;;;;2.47;1.90;;;;;;;;;;4985242;28;20121;-78
2023/02/19 10:16:40;;;;;;;2.53;1.60;;;;;;;;;;4983158;28;20038;-77
2023/02/19 10:19:10;;;;;;;3.05;1.70;;;;;;;;;;4984424;28;20499;-78
2023/02/19 10:21:37;;;;;;;3.42;1.63;;;;;;;;;;4963417;28;20027;-77
2023/02/19 10:24:05;;;;;;;6.70;1.60;;;;;;;;;;4946470;28;20031;-77
2023/02/19 10:26:34;;;;;;;1.52;1.40;;;;;;;;;;4960724;28;20050;-77
2023/02/19 10:29:00;;;;;;;5.65;1.75;;;;;;;;;;4978638;28;20034;-78
2023/02/19 10:31:27;;;;;;;2.80;1.92;;;;;;;;;;4978726;28;20070;-76
2023/02/19 10:33:54;;;;;;;2.17;1.40;;;;;;;;;;4980006;28;20057;-79
2023/02/19 10:36:31;;;;;;;1.50;1.30;;;;;;;;;;4962189;28;20026;-77
2023/02/19 10:38:58;;;;;;;2.95;1.60;;;;;;;;;;4980484;28;20057;-78
2023/02/19 10:41:25;;;;;;;2.75;1.58;;;;;;;;;;4962755;28;20416;-78
2023/02/19 10:43:57;;;;;;;4.43;1.75;;;;;;;;;;4979222;28;20027;-76
2023/02/19 10:46:32;;;;;;;3.45;1.88;;;;;;;;;;4982594;28;20556;-78
2023/02/19 10:49:01;;;;;;;4.20;1.83;;;;;;;;;;4965197;28;20512;-78
2023/02/19 10:51:37;;;;;;;3.10;1.95;;;;;;;;;;4972947;28;20046;-78
2023/02/19 10:54:04;;;;;;;2.83;1.90;;;;;;;;;;4971180;28;20285;-77
2023/02/19 10:56:32;;;;;;;3.75;2.10;;;;;;;;;;4972714;28;20110;-79
2023/02/19 10:59:17;;;;;;;4.45;2.13;;;;;;;;;;4971422;28;20146;-78
2023/02/19 11:02:05;;;;;;;4.03;1.83;;;;;;;;;;4969994;28;20034;-78
2023/02/19 11:04:36;;;;;;;2.45;2.25;;;;;;;;;;4939273;28;20458;-79
2023/02/19 11:07:17;;;;;;;2.90;2.20;;;;;;;;;;4956793;28;20058;-77
2023/02/19 11:09:45;;;;;;;4.88;2.00;;;;;;;;;;4971526;28;20030;-76
2023/02/19 11:12:23;;;;;;;2.85;1.73;;;;;;;;;;4960969;28;20033;-79
2023/02/19 11:14:50;;;;;;;4.05;1.80;;;;;;;;;;4979942;28;20031;-78
2023/02/19 11:17:27;;;;;;;1.90;1.70;;;;;;;;;;4955356;28;20034;-78
2023/02/19 11:19:54;;;;;;;4.00;2.10;;;;;;;;;;4958257;28;20035;-76
2023/02/19 11:22:41;;;;;;;2.88;1.88;;;;;;;;;;4973566;28;20034;-78
2023/02/19 11:25:10;;;;;;;3.08;1.95;;;;;;;;;;4980677;28;20031;-76
2023/02/19 11:27:36;;;;;;;4.45;2.30;;;;;;;;;;4979926;28;20026;-79
2023/02/19 11:30:40;;;;;;;8.23;5.55;;;;;;;;;;4971039;28;20026;-79
2023/02/19 11:33:19;;;;;;;2.78;2.40;;;;;;;;;;4905447;29;20100;-75
2023/02/19 11:35:50;;;;;;;7.40;3.53;;;;;;;;;;4910291;29;20040;-76
2023/02/19 11:38:18;;;;;;;3.90;2.60;;;;;;;;;;4951741;28;20074;-78
2023/02/19 11:40:52;;;;;;;5.53;4.15;;;;;;;;;;4966917;28;20026;-77
2023/02/19 11:43:24;;;;;;;12.88;5.53;;;;;;;;;;4981499;28;20031;-78
2023/02/19 11:46:17;;;;;;;2.70;2.17;;;;;;;;;;4961062;28;20027;-77
2023/02/19 11:48:49;;;;;;;5.63;3.92;;;;;;;;;;4961812;28;20110;-77
2023/02/19 11:51:21;;;;;;;3.60;3.15;;;;;;;;;;4971195;28;20067;-77
2023/02/19 11:53:50;;;;;;;6.57;2.45;;;;;;;;;;4971620;28;20023;-77
2023/02/19 11:56:44;;;;;;;4.00;2.10;;;;;;;;;;4969538;28;20035;-77
2023/02/19 11:59:19;;;;;;;4.15;1.83;;;;;;;;;;4969705;28;20039;-78
2023/02/19 12:01:54;;;;;;;5.30;3.47;;;;;;;;;;4956049;28;20050;-77
2023/02/19 12:04:20;;;;;;;5.13;2.10;;;;;;;;;;4973476;28;20597;-79
2023/02/19 12:06:46;;;;;;;4.40;1.90;;;;;;;;;;4973350;28;20023;-80
2023/02/19 12:09:28;;;;;;;2.65;1.98;;;;;;;;;;4959893;28;20083;-77
2023/02/19 12:11:59;;;;;;;3.80;1.80;;;;;;;;;;4972132;28;20037;-78
2023/02/19 12:14:25;;;;;;;3.70;2.00;;;;;;;;;;4974675;28;20087;-78
2023/02/19 12:16:57;;;;;;;2.65;1.80;;;;;;;;;;4973210;28;20442;-77
2023/02/19 12:19:23;;;;;;;4.68;2.67;;;;;;;;;;4974457;28;20106;-78
2023/02/19 12:22:07;;;;;;;4.13;2.00;;;;;;;;;;4971262;28;20038;-77
2023/02/19 12:24:52;;;;;;;8.13;2.08;;;;;;;;;;4975083;28;20058;-76
2023/02/19 12:27:26;;;;;;;3.35;1.85;;;;;;;;;;4972282;28;20026;-78
2023/02/19 12:30:11;;;;;;;6.20;1.75;;;;;;;;;;4974556;28;20030;-79
2023/02/19 12:32:40;;;;;;;2.60;1.75;;;;;;;;;;4974416;28;20026;-78
2023/02/19 12:35:25;;;;;;;1.63;1.52;;;;;;;;;;4975546;28;20138;-78
2023/02/19 12:38:03;;;;;;;6.22;1.92;;;;;;;;;;4973735;28;20030;-77
2023/02/19 12:40:35;;;;;;;2.95;1.60;;;;;;;;;;4974134;28;20031;-77
2023/02/19 12:43:08;;;;;;;1.80;1.70;;;;;;;;;;4971089;28;20046;-78
2023/02/19 12:45:40;;;;;;;2.42;2.05;;;;;;;;;;4974073;28;20480;-77
2023/02/19 12:48:26;;;;;;;3.13;2.33;;;;;;;;;;4968821;28;20039;-78
2023/02/19 12:51:12;;;;;;;3.75;1.70;;;;;;;;;;4959920;28;20066;-78
2023/02/19 12:53:42;;;;;;;1.77;1.67;;;;;;;;;;4924150;28;20038;-78
2023/02/19 12:56:12;;;;;;;1.73;1.50;;;;;;;;;;4970122;28;20482;-78
2023/02/19 12:58:41;;;;;;;3.28;2.17;;;;;;;;;;4956539;28;20031;-79
2023/02/19 13:01:10;;;;;;;1.80;1.70;;;;;;;;;;4972088;28;20031;-79
2023/02/19 13:03:48;;;;;;;2.78;1.60;;;;;;;;;;4971834;28;20058;-79
2023/02/19 13:06:23;;;;;;;2.60;1.60;;;;;;;;;;4975356;28;20027;-77
2023/02/19 13:08:55;;;;;;;2.22;1.60;;;;;;;;;;4971875;28;20027;-77
2023/02/19 13:11:33;;;;;;;1.95;1.80;;;;;;;;;;4972478;28;20018;-78
2023/02/19 13:14:03;;;;;;;2.83;1.60;;;;;;;;;;4971040;28;20038;-79
2023/02/19 13:16:32;;;;;;;3.30;1.90;;;;;;;;;;4978798;28;20049;-77
2023/02/19 13:19:00;;;;;;;1.60;1.50;;;;;;;;;;4976772;28;20023;-77
2023/02/19 13:24:38;;;;;;;3.35;1.65;;;;;;;;;;4977098;28;20042;-79
2023/02/19 13:27:23;;;;;;;2.55;1.70;;;;;;;;;;4975163;28;20027;-77
2023/02/19 13:30:02;;;;;;;2.90;1.60;;;;;;;;;;4955942;28;20422;-77
2023/02/19 13:32:28;;;;;;;2.25;2.05;;;;;;;;;;4960189;28;20034;-77
2023/02/19 13:34:54;;;;;;;2.45;1.75;;;;;;;;;;4977643;28;20027;-78
2023/02/19 13:37:22;;;;;;;1.40;1.35;;;;;;;;;;4961088;28;20026;-79
2023/02/19 13:39:51;;;;;;;2.38;1.70;;;;;;;;;;4978589;28;20600;-79
2023/02/19 13:42:30;;;;;;;2.13;1.83;;;;;;;;;;4973439;28;20041;-79
2023/02/19 13:44:56;;;;;;;3.88;2.72;;;;;;;;;;4982129;28;20618;-79
2023/02/19 13:47:41;;;;;;;3.78;2.15;;;;;;;;;;4978933;28;20041;-78
2023/02/19 13:50:17;;;;;;;6.07;2.95;;;;;;;;;;4983686;28;20037;-79
2023/02/19 13:52:43;;;;;;;2.92;2.60;;;;;;;;;;4983138;28;20050;-77
2023/02/19 13:55:28;;;;;;;4.80;3.45;;;;;;;;;;4979342;28;20027;-78
2023/02/19 13:57:54;;;;;;;5.63;2.60;;;;;;;;;;4980256;28;20062;-78
2023/02/19 14:00:38;;;;;;;4.65;3.58;;;;;;;;;;4980590;28;20031;-78
2023/02/19 14:03:23;;;;;;;5.18;3.20;;;;;;;;;;4961268;28;20113;-79
2023/02/19 14:06:04;;;;;;;4.28;3.38;;;;;;;;;;4971482;28;20031;-78
2023/02/19 14:08:49;;;;;;;4.88;3.35;;;;;;;;;;4971834;28;20567;-81
2023/02/19 14:11:16;;;;;;;4.47;3.53;;;;;;;;;;4974275;28;20022;-79
2023/02/19 14:13:51;;;;;;;4.00;3.25;;;;;;;;;;4976031;28;20042;-79
2023/02/19 14:16:30;;;;;;;4.22;3.83;;;;;;;;;;4966322;28;20493;-81
2023/02/19 14:18:56;;;;;;;5.13;3.95;;;;;;;;;;4965927;28;20034;-81
2023/02/19 14:21:24;;;;;;;3.97;3.38;;;;;;;;;;4948580;28;20045;-82
2023/02/19 14:23:52;;;;;;;4.45;3.42;;;;;;;;;;4964993;28;20081;-81
2023/02/19 14:26:18;;;;;;;6.30;5.13;;;;;;;;;;4946931;28;20114;-80
2023/02/19 14:28:45;;;;;;;4.70;3.42;;;;;;;;;;4962340;28;20507;-83
2023/02/19 14:31:15;;;;;;;5.20;4.70;;;;;;;;;;4968713;28;20087;-80
2023/02/19 14:33:46;;;;;;;3.20;2.90;;;;;;;;;;4975964;28;20271;-76
2023/02/19 14:36:32;;;;;;;2.83;2.45;;;;;;;;;;4981765;28;20498;-78
2023/02/19 14:39:00;;;;;;;4.97;3.75;;;;;;;;;;4977887;28;20057;-78
2023/02/19 14:41:28;;;;;;;3.45;3.15;;;;;;;;;;4981314;28;20050;-77
2023/02/19 14:43:56;;;;;;;4.82;4.18;;;;;;;;;;4981847;28;20034;-79
2023/02/19 14:46:34;;;;;;;9.60;6.93;;;;;;;;;;4976254;28;20023;-79
2023/02/19 14:49:07;;;;;;;8.40;7.10;;;;;;;;;;4985556;28;20095;-77
2023/02/19 14:51:36;;;;;;;7.45;6.03;;;;;;;;;;4980332;28;20512;-78
2023/02/19 14:54:09;;;;;;;8.43;5.50;;;;;;;;;;4966945;28;20477;-78
2023/02/19 14:56:36;;;;;;;5.75;4.80;;;;;;;;;;4963421;28;20070;-78
2023/02/19 14:59:21;;;;;;;7.35;5.32;;;;;;;;;;4946397;28;20039;-79
2023/02/19 15:01:56;;;;;;;7.93;7.03;;;;;;;;;;4977384;28;20058;-78
2023/02/19 15:04:26;;;;;;;4.97;3.80;;;;;;;;;;4972456;28;20043;-76
2023/02/19 15:06:55;;;;;;;4.38;3.42;;;;;;;;;;4961086;28;20026;-80
2023/02/19 15:09:24;;;;;;;5.53;3.95;;;;;;;;;;4975678;28;20031;-78
2023/02/19 15:11:51;;;;;;;5.53;4.80;;;;;;;;;;4979011;28;20035;-78
2023/02/19 15:14:20;;;;;;;11.45;9.05;;;;;;;;;;4978504;28;20031;-78
2023/02/19 15:16:46;;;;;;;8.68;6.18;;;;;;;;;;4977753;28;20039;-78
2023/02/19 15:19:14;;;;;;;8.27;6.18;;;;;;;;;;4963452;28;20107;-80
2023/02/19 15:21:44;;;;;;;5.15;3.58;;;;;;;;;;4985398;28;20037;-77
2023/02/19 15:24:10;;;;;;;4.35;3.00;;;;;;;;;;4980975;28;20084;-76
2023/02/19 15:26:37;;;;;;;4.88;3.33;;;;;;;;;;4966507;28;20114;-77
2023/02/19 15:29:08;;;;;;;6.05;4.05;;;;;;;;;;4981154;28;20058;-76
2023/02/19 15:31:34;;;;;;;3.38;3.08;;;;;;;;;;4980473;28;20119;-77
2023/02/19 15:34:01;;;;;;;4.30;3.38;;;;;;;;;;4965441;28;20045;-79
2023/02/19 15:36:31;;;;;;;4.28;3.30;;;;;;;;;;4977808;28;20030;-78
2023/02/19 15:38:59;;;;;;;6.05;3.33;;;;;;;;;;4982878;28;20042;-76
2023/02/19 15:41:27;;;;;;;9.75;5.60;;;;;;;;;;4970508;28;20113;-77
2023/02/19 15:44:01;;;;;;;5.57;3.95;;;;;;;;;;4983613;28;20026;-77
2023/02/19 15:46:27;;;;;;;4.38;3.17;;;;;;;;;;4970162;28;20033;-78
2023/02/19 15:49:02;;;;;;;7.18;4.07;;;;;;;;;;4965030;28;20035;-78
2023/02/19 15:51:34;;;;;;;18.55;12.38;;;;;;;;;;4985191;28;20052;-79
2023/02/19 15:54:06;;;;;;;16.23;9.63;;;;;;;;;;4964480;28;20031;-78
2023/02/19 15:56:33;;;;;;;5.57;4.95;;;;;;;;;;4986282;28;20033;-77
2023/02/19 15:59:02;;;;;;;5.65;4.47;;;;;;;;;;4977007;28;20030;-80
2023/02/19 16:01:30;;;;;;;5.28;4.45;;;;;;;;;;4963298;28;20082;-78
2023/02/19 16:03:57;;;;;;;5.50;4.50;;;;;;;;;;4978080;28;20438;-80
2023/02/19 16:06:24;;;;;;;8.15;5.30;;;;;;;;;;4977303;28;20019;-78
2023/02/19 16:09:04;;;;;;;8.90;5.45;;;;;;;;;;4976159;28;20066;-78
2023/02/19 16:11:34;;;;;;;5.47;4.43;;;;;;;;;;4976360;28;20019;-79
2023/02/19 16:14:17;;;;;;;5.13;4.60;;;;;;;;;;4978159;28;20046;-79
2023/02/19 16:16:44;;;;;;;12.63;9.52;;;;;;;;;;4960163;28;20030;-80
2023/02/19 16:19:10;;;;;;;9.98;6.80;;;;;;;;;;4976179;28;20027;-79
2023/02/19 16:21:36;;;;;;;8.27;5.47;;;;;;;;;;4978376;28;20174;-77
2023/02/19 16:24:16;;;;;;;14.35;8.50;;;;;;;;;;4981641;28;20038;-78
2023/02/19 16:26:43;;;;;;;7.10;5.63;;;;;;;;;;4986239;28;20094;-77
2023/02/19 16:29:20;;;;;;;7.00;5.30;;;;;;;;;;4983558;28;20037;-77
2023/02/19 16:31:48;;;;;;;5.43;4.90;;;;;;;;;;4981474;28;20027;-77